Time;durP1;ratioP1;P1;durP2;ratioP2;P2;SDS_P1;SDS_P2;PMS_P1;PMS_P2;Temp;Humidity;BMP_temperature;BMP_pressure;BME280_temperature;BME280_humidity;BME280_pressure;Samples;Min_cycle;Max_cycle;Signal;HPM_P1;HPM_P2
2024/01/20 09:08:57;;;;;;;;;;;;;;;;;;5405062;23;19931;-95
2024/01/20 11:44:01;;;;;;;;;;;;;;;;;;5165406;23;19922;-88
2024/01/20 11:46:32;;;;;;;;;;;;;;;;;;4930754;29;19919;-88
2024/01/20 11:49:02;;;;;;;;;;;;;;;;;;4919932;29;19971;-91
2024/01/20 11:51:28;;;;;;;;;;;;;;;;;;4918761;29;19911;-92
2024/01/20 11:53:54;;;;;;;;;;;;;;;;;;4920495;29;19939;-91
2024/01/20 11:56:19;;;;;;;;;;;;;;;;;;4921244;29;19918;-93
2024/01/20 11:58:45;;;;;;;;;;;;;;;;;;4920426;29;19923;-89
2024/01/20 12:01:16;;;;;;;;;;;;;;;;;;4921841;29;19915;-90
2024/01/20 12:03:43;;;;;;;;;;;;;;;;;;4925342;29;19911;-89
2024/01/20 12:06:09;;;;;;;;;;;;;;;;;;4927158;29;19942;-94
2024/01/20 12:08:36;;;;;;;;;;;;;;;;;;4925090;29;19919;-89
2024/01/20 12:11:01;;;;;;;;;;;;;;;;;;4924808;29;19915;-90
2024/01/20 12:13:32;;;;;;;;;;;;;;;;;;4904519;29;19919;-89
2024/01/20 12:15:58;;;;;;;;;;;;;;;;;;4917568;29;19954;-91
2024/01/20 12:18:24;;;;;;;;;;;;;;;;;;4924031;29;19947;-87
2024/01/20 12:20:49;;;;;;;;;;;;;;;;;;4917398;29;19915;-88
2024/01/20 12:23:19;;;;;;;;;;;;;;;;;;4917563;29;20378;-88
2024/01/20 12:25:45;;;;;;;;;;;;;;;;;;4917786;29;20228;-87
2024/01/20 12:28:10;;;;;;;;;;;;;;;;;;4917454;29;20043;-87
2024/01/20 12:30:35;;;;;;;;;;;;;;;;;;4917439;29;19915;-89
2024/01/20 12:33:01;;;;;;;;;;;;;;;;;;4917595;29;19914;-87
2024/01/20 12:35:26;;;;;;;;;;;;;;;;;;4917418;29;19922;-89
2024/01/20 12:37:52;;;;;;;;;;;;;;;;;;4918170;29;19919;-89
2024/01/20 12:40:19;;;;;;;;;;;;;;;;;;4917731;29;20009;-90
2024/01/20 12:42:44;;;;;;;;;;;;;;;;;;4918115;29;19921;-92
2024/01/20 12:45:11;;;;;;;;;;;;;;;;;;4917144;29;19919;-89
2024/01/20 12:47:37;;;;;;;;;;;;;;;;;;4918482;29;20255;-88
2024/01/20 12:50:04;;;;;;;;;;;;;;;;;;4918906;29;19942;-89
2024/01/20 12:52:33;;;;;;;;;;;;;;;;;;4924060;29;19915;-89
2024/01/20 12:54:59;;;;;;;;;;;;;;;;;;4925373;29;19922;-89
2024/01/20 12:57:27;;;;;;;;;;;;;;;;;;4920943;29;19915;-88
2024/01/20 12:59:54;;;;;;;;;;;;;;;;;;4932633;29;20018;-89
2024/01/20 13:02:23;;;;;;;;;;;;;;;;;;4922553;29;19915;-88
2024/01/20 13:04:49;;;;;;;;;;;;;;;;;;4920559;29;20005;-88
2024/01/20 13:07:15;;;;;;;;;;;;;;;;;;4924340;29;19926;-88
2024/01/20 13:09:45;;;;;;;;;;;;;;;;;;4923494;29;19915;-87
2024/01/20 13:12:11;;;;;;;;;;;;;;;;;;4920866;29;19953;-88
2024/01/20 13:14:37;;;;;;;;;;;;;;;;;;4920587;29;19943;-88
2024/01/20 13:17:05;;;;;;;;;;;;;;;;;;4922180;29;19915;-89
2024/01/20 13:19:30;;;;;;;;;;;;;;;;;;4928159;29;19946;-88
2024/01/20 13:21:55;;;;;;;;;;;;;;;;;;4936177;29;19919;-88
2024/01/20 13:24:21;;;;;;;;;;;;;;;;;;4928084;29;19903;-88
2024/01/20 13:26:47;;;;;;;;;;;;;;;;;;4938643;29;19899;-89
2024/01/20 13:29:13;;;;;;;;;;;;;;;;;;4938326;29;19919;-88
2024/01/20 13:31:41;;;;;;;;;;;;;;;;;;4943060;29;19905;-88
2024/01/20 13:34:07;;;;;;;;;;;;;;;;;;4942711;29;19919;-87
2024/01/20 13:36:34;;;;;;;;;;;;;;;;;;4937991;29;19970;-88
2024/01/20 13:39:04;;;;;;;;;;;;;;;;;;4939965;29;19922;-88
2024/01/20 13:41:33;;;;;;;;;;;;;;;;;;4955085;23;19914;-88
2024/01/20 13:43:59;;;;;;;;;;;;;;;;;;4976480;28;19902;-88
2024/01/20 13:46:26;;;;;;;;;;;;;;;;;;4980644;28;19903;-88
2024/01/20 13:48:53;;;;;;;;;;;;;;;;;;4981919;28;19903;-88
2024/01/20 13:51:25;;;;;;;;;;;;;;;;;;4954385;29;19922;-88
2024/01/20 13:53:50;;;;;;;;;;;;;;;;;;4959380;29;19923;-88
2024/01/20 13:56:17;;;;;;;;;;;;;;;;;;4937650;29;19985;-88
2024/01/20 13:58:43;;;;;;;;;;;;;;;;;;4943193;29;19914;-88
2024/01/20 14:01:12;;;;;;;;;;;;;;;;;;4935949;29;19990;-88
2024/01/20 14:03:49;;;;;;;;;;;;;;;;;;4945335;29;19903;-87
2024/01/20 14:06:16;;;;;;;;;;;;;;;;;;4957940;29;19918;-88
2024/01/20 14:08:41;;;;;;;;;;;;;;;;;;4936262;29;20013;-89
2024/01/20 14:13:38;;;;;;;;;;;;;;;;;;4958838;28;19907;-87
2024/01/20 14:16:09;;;;;;;;;;;;;;;;;;4957915;29;19918;-89
2024/01/20 14:18:44;;;;;;;;;;;;;;;;;;4945351;29;19921;-88
2024/01/20 14:21:29;;;;;;;;;;;;;;;;;;4919614;29;19991;-88
2024/01/20 14:23:55;;;;;;;;;;;;;;;;;;4902677;29;19988;-89
2024/01/20 14:26:20;;;;;;;;;;;;;;;;;;4922139;29;19919;-85
2024/01/20 14:28:48;;;;;;;;;;;;;;;;;;4942177;29;19915;-86
2024/01/20 14:31:13;;;;;;;;;;;;;;;;;;4921992;29;19937;-89
2024/01/20 14:33:40;;;;;;;;;;;;;;;;;;4929718;29;20434;-91
2024/01/20 14:36:05;;;;;;;;;;;;;;;;;;4948996;29;19914;-87
2024/01/20 14:38:30;;;;;;;;;;;;;;;;;;4938901;29;19915;-88
2024/01/20 14:40:57;;;;;;;;;;;;;;;;;;4920819;29;19925;-88
2024/01/20 14:43:23;;;;;;;;;;;;;;;;;;4937979;29;19915;-88
2024/01/20 14:45:50;;;;;;;;;;;;;;;;;;4954944;29;20008;-90
2024/01/20 14:48:15;;;;;;;;;;;;;;;;;;4948494;29;19922;-95
2024/01/20 15:52:51;;;;;;;;;;;;;;;;;;4918135;29;19919;-87
2024/01/20 15:55:17;;;;;;;;;;;;;;;;;;4917994;29;20026;-90
2024/01/20 15:57:45;;;;;;;;;;;;;;;;;;4922339;29;19915;-93
2024/01/20 16:00:16;;;;;;;;;;;;;;;;;;4907428;29;19919;-95
2024/01/20 16:02:42;;;;;;;;;;;;;;;;;;4923615;29;19919;-92
2024/01/20 16:05:25;;;;;;;;;;;;;;;;;;4924979;29;19915;-91
2024/01/20 16:11:21;;;;;;;;;;;;;;;;;;4841633;29;20391;-93
2024/01/20 16:16:57;;;;;;;;;;;;;;;;;;4825372;29;20000;-94
2024/01/20 16:19:56;;;;;;;;;;;;;;;;;;;;;
2024/01/20 18:18:10;;;;;;;;;;;;;;;;;;2450037;23;20208;-94
2024/01/20 18:20:37;;;;;;;;;;;;;;;;;;4896152;29;19994;-93
2024/01/20 18:23:03;;;;;;;;;;;;;;;;;;4925318;29;19920;-92
2024/01/20 18:25:30;;;;;;;;;;;;;;;;;;4894306;29;19919;-93
2024/01/20 18:27:59;;;;;;;;;;;;;;;;;;4913192;29;19915;-94
2024/01/20 18:30:31;;;;;;;;;;;;;;;;;;4916314;29;19915;-93
2024/01/20 18:32:59;;;;;;;;;;;;;;;;;;4908915;29;20017;-93
2024/01/20 18:35:32;;;;;;;;;;;;;;;;;;4920575;29;19927;-92
2024/01/20 18:37:57;;;;;;;;;;;;;;;;;;4906448;29;19915;-93
2024/01/20 18:40:23;;;;;;;;;;;;;;;;;;4900708;29;19915;-96
2024/01/20 18:42:51;;;;;;;;;;;;;;;;;;4907653;29;19915;-94
2024/01/20 18:45:18;;;;;;;;;;;;;;;;;;4906530;29;19918;-90
2024/01/20 18:47:46;;;;;;;;;;;;;;;;;;4913936;23;19923;-92
2024/01/20 18:50:13;;;;;;;;;;;;;;;;;;4907430;29;19954;-93
2024/01/20 18:52:44;;;;;;;;;;;;;;;;;;4907922;29;19954;-92
2024/01/20 18:55:11;;;;;;;;;;;;;;;;;;4906498;29;19950;-92
2024/01/20 18:57:37;;;;;;;;;;;;;;;;;;4905436;29;19919;-91
2024/01/20 19:00:04;;;;;;;;;;;;;;;;;;4907047;29;19915;-92
2024/01/20 19:02:30;;;;;;;;;;;;;;;;;;4905996;29;19915;-91
2024/01/20 19:04:55;;;;;;;;;;;;;;;;;;4905474;29;19974;-92
2024/01/20 19:07:21;;;;;;;;;;;;;;;;;;4905545;29;19960;-92
2024/01/20 19:09:49;;;;;;;;;;;;;;;;;;4905215;29;19915;-92
2024/01/20 19:12:14;;;;;;;;;;;;;;;;;;4906481;29;19967;-92
2024/01/20 19:14:44;;;;;;;;;;;;;;;;;;4923354;29;20374;-91
2024/01/20 19:17:14;;;;;;;;;;;;;;;;;;4923143;29;19919;-92
2024/01/20 19:19:43;;;;;;;;;;;;;;;;;;4923351;29;19915;-92
2024/01/20 19:22:10;;;;;;;;;;;;;;;;;;4905963;29;19934;-92
2024/01/20 19:24:36;;;;;;;;;;;;;;;;;;4905450;29;20005;-92
2024/01/20 19:27:03;;;;;;;;;;;;;;;;;;4905914;29;19978;-92
2024/01/20 19:29:28;;;;;;;;;;;;;;;;;;4906236;29;20018;-92
2024/01/20 19:31:54;;;;;;;;;;;;;;;;;;4906423;29;19965;-92
2024/01/20 19:34:22;;;;;;;;;;;;;;;;;;4905861;29;19967;-92
2024/01/20 19:36:47;;;;;;;;;;;;;;;;;;4933028;23;19927;-92
2024/01/20 19:39:13;;;;;;;;;;;;;;;;;;4941908;29;19918;-92
2024/01/20 19:41:39;;;;;;;;;;;;;;;;;;4941858;29;19977;-92
2024/01/20 19:44:07;;;;;;;;;;;;;;;;;;4940463;29;20453;-92
2024/01/20 19:46:33;;;;;;;;;;;;;;;;;;4941688;29;19970;-92
2024/01/20 19:48:58;;;;;;;;;;;;;;;;;;4940412;29;19919;-92
2024/01/20 19:51:24;;;;;;;;;;;;;;;;;;4941368;29;19911;-92
2024/01/20 19:53:50;;;;;;;;;;;;;;;;;;4940195;29;19954;-92
2024/01/20 19:56:15;;;;;;;;;;;;;;;;;;4939996;29;19922;-93
2024/01/20 19:58:41;;;;;;;;;;;;;;;;;;4939929;29;20059;-92
2024/01/20 20:01:07;;;;;;;;;;;;;;;;;;4940296;29;19914;-92
2024/01/20 20:03:38;;;;;;;;;;;;;;;;;;4941443;29;19917;-92
2024/01/20 20:06:04;;;;;;;;;;;;;;;;;;4944331;29;19998;-92
2024/01/20 20:08:29;;;;;;;;;;;;;;;;;;4944914;29;19965;-92
2024/01/20 20:10:55;;;;;;;;;;;;;;;;;;4944332;29;19914;-92
2024/01/20 20:13:21;;;;;;;;;;;;;;;;;;4943700;29;19914;-92
2024/01/20 20:15:49;;;;;;;;;;;;;;;;;;4943708;29;19919;-92
2024/01/20 20:18:16;;;;;;;;;;;;;;;;;;4944317;29;19914;-92
2024/01/20 20:20:42;;;;;;;;;;;;;;;;;;4944935;29;19915;-92
2024/01/20 20:23:09;;;;;;;;;;;;;;;;;;4947383;29;20452;-92
2024/01/20 20:25:35;;;;;;;;;;;;;;;;;;4946378;29;19914;-92
2024/01/20 20:28:02;;;;;;;;;;;;;;;;;;4946328;29;19914;-92
2024/01/20 20:30:28;;;;;;;;;;;;;;;;;;4946767;29;20009;-91
2024/01/20 20:32:54;;;;;;;;;;;;;;;;;;4945270;29;19946;-92
2024/01/20 20:35:20;;;;;;;;;;;;;;;;;;4942727;29;19919;-93
2024/01/20 20:37:45;;;;;;;;;;;;;;;;;;4943980;29;20330;-92
2024/01/20 20:40:11;;;;;;;;;;;;;;;;;;4944121;29;19918;-95
2024/01/20 20:42:36;;;;;;;;;;;;;;;;;;4940960;29;20342;-94
2024/01/20 20:45:02;;;;;;;;;;;;;;;;;;4944844;29;19937;-95
2024/01/20 20:47:29;;;;;;;;;;;;;;;;;;4943638;29;19938;-95
2024/01/20 20:49:56;;;;;;;;;;;;;;;;;;4944785;29;19970;-96
2024/01/20 20:52:22;;;;;;;;;;;;;;;;;;4943709;29;19915;-96
2024/01/20 20:54:47;;;;;;;;;;;;;;;;;;4941255;29;19918;-94
2024/01/20 20:57:12;;;;;;;;;;;;;;;;;;4940197;29;19937;-96
2024/01/20 20:59:44;;;;;;;;;;;;;;;;;;4941319;29;20389;-95
2024/01/20 21:02:09;;;;;;;;;;;;;;;;;;4942887;29;19919;-96
2024/01/20 21:04:35;;;;;;;;;;;;;;;;;;4941695;29;20493;-94
2024/01/20 21:07:00;;;;;;;;;;;;;;;;;;4941644;29;19944;-95
2024/01/20 21:09:26;;;;;;;;;;;;;;;;;;4943233;29;19915;-96
2024/01/20 21:11:51;;;;;;;;;;;;;;;;;;4951699;29;19915;-94
2024/01/20 21:14:16;;;;;;;;;;;;;;;;;;4950597;29;19958;-95
2024/01/20 21:16:42;;;;;;;;;;;;;;;;;;4948351;29;19922;-94
2024/01/20 21:19:10;;;;;;;;;;;;;;;;;;4948977;29;20017;-95
2024/01/20 21:21:36;;;;;;;;;;;;;;;;;;4941929;29;19914;-94
2024/01/20 21:24:02;;;;;;;;;;;;;;;;;;4942644;29;19919;-94
2024/01/20 21:26:31;;;;;;;;;;;;;;;;;;4944617;29;19915;-95
2024/01/20 21:28:56;;;;;;;;;;;;;;;;;;4944604;29;19914;-95
2024/01/20 21:31:22;;;;;;;;;;;;;;;;;;4942795;29;19910;-94
2024/01/20 21:33:47;;;;;;;;;;;;;;;;;;4941677;29;19915;-94
2024/01/20 21:36:12;;;;;;;;;;;;;;;;;;4941882;29;19918;-94
2024/01/20 21:38:38;;;;;;;;;;;;;;;;;;4941346;29;19915;-95
2024/01/20 21:41:04;;;;;;;;;;;;;;;;;;4941897;29;19914;-94
2024/01/20 21:43:29;;;;;;;;;;;;;;;;;;4942299;29;19914;-95
2024/01/20 21:45:55;;;;;;;;;;;;;;;;;;4952438;29;20014;-95
2024/01/20 21:48:20;;;;;;;;;;;;;;;;;;4946579;29;19918;-95
2024/01/20 21:50:48;;;;;;;;;;;;;;;;;;4955513;29;19925;-92
2024/01/20 21:53:13;;;;;;;;;;;;;;;;;;4964075;29;19921;-95
2024/01/20 21:55:39;;;;;;;;;;;;;;;;;;4961822;29;19954;-94
2024/01/20 21:58:04;;;;;;;;;;;;;;;;;;4960064;28;19921;-95
2024/01/20 22:00:30;;;;;;;;;;;;;;;;;;4962001;29;19922;-94
2024/01/20 22:02:55;;;;;;;;;;;;;;;;;;4963179;29;19923;-92
2024/01/20 22:05:20;;;;;;;;;;;;;;;;;;4944920;29;19918;-93
2024/01/20 22:07:46;;;;;;;;;;;;;;;;;;4964850;29;19914;-95
2024/01/20 22:10:12;;;;;;;;;;;;;;;;;;4968833;29;19942;-95
2024/01/20 22:12:37;;;;;;;;;;;;;;;;;;4967397;29;20018;-96
2024/01/20 22:15:03;;;;;;;;;;;;;;;;;;4970208;29;19919;-96
2024/01/20 22:17:28;;;;;;;;;;;;;;;;;;4969454;29;19915;-96
2024/01/20 22:19:53;;;;;;;;;;;;;;;;;;4965537;29;20258;-95
2024/01/20 22:22:19;;;;;;;;;;;;;;;;;;4962707;29;20370;-95
2024/01/20 22:24:45;;;;;;;;;;;;;;;;;;4947820;29;19919;-96
2024/01/20 22:27:10;;;;;;;;;;;;;;;;;;4943625;29;20278;-96
2024/01/20 22:29:37;;;;;;;;;;;;;;;;;;4943231;29;19915;-96
2024/01/20 22:32:03;;;;;;;;;;;;;;;;;;4942589;29;19922;-95
2024/01/20 22:34:29;;;;;;;;;;;;;;;;;;4940818;29;20005;-94
2024/01/20 22:36:55;;;;;;;;;;;;;;;;;;4943679;29;19962;-95
2024/01/20 22:39:21;;;;;;;;;;;;;;;;;;4943209;29;19919;-96
2024/01/20 22:41:46;;;;;;;;;;;;;;;;;;4939908;29;19914;-96
2024/01/20 22:44:11;;;;;;;;;;;;;;;;;;4941472;29;19921;-96
2024/01/20 22:46:37;;;;;;;;;;;;;;;;;;4947316;29;19919;-96
2024/01/20 22:49:02;;;;;;;;;;;;;;;;;;4952284;29;19921;-96
2024/01/20 22:51:27;;;;;;;;;;;;;;;;;;4943264;29;19918;-96
2024/01/20 22:53:53;;;;;;;;;;;;;;;;;;4942823;29;19954;-95
2024/01/20 22:56:21;;;;;;;;;;;;;;;;;;4947845;29;19920;-95
2024/01/20 22:58:49;;;;;;;;;;;;;;;;;;4944130;29;20001;-95
